Time;durP1;ratioP1;P1;durP2;ratioP2;P2;SDS_P1;SDS_P2;PMS_P1;PMS_P2;Temp;Humidity;BMP_temperature;BMP_pressure;BME280_temperature;BME280_humidity;BME280_pressure;Samples;Min_cycle;Max_cycle;Signal;HPM_P1;HPM_P2
2021/03/10 00:01:01;;;;;;;34.23;20.20;;;-5.20;99.90;;;;;;4836828;28;21189;-89
2021/03/10 00:03:23;;;;;;;36.23;19.23;;;-5.30;99.90;;;;;;4857549;28;20584;-88
2021/03/10 00:05:45;;;;;;;34.23;20.30;;;-5.30;1.00;;;;;;4849905;28;20609;-90
2021/03/10 00:08:08;;;;;;;37.63;20.03;;;-5.40;1.00;;;;;;4854794;28;20607;-89
2021/03/10 00:10:30;;;;;;;32.03;19.07;;;-5.40;1.00;;;;;;4838084;28;20612;-85
2021/03/10 00:12:52;;;;;;;38.23;21.33;;;-5.50;99.90;;;;;;4840557;28;20663;-89
2021/03/10 00:15:15;;;;;;;39.83;20.67;;;-5.50;99.90;;;;;;4840453;28;20697;-90
2021/03/10 00:17:38;;;;;;;40.07;21.37;;;-5.50;1.00;;;;;;4838857;28;20593;-88
2021/03/10 00:20:00;;;;;;;43.83;22.93;;;-5.60;1.00;;;;;;4839332;28;20608;-88
2021/03/10 00:22:22;;;;;;;41.10;23.53;;;-5.60;33.10;;;;;;4847705;28;20617;-89
2021/03/10 00:24:45;;;;;;;39.47;21.30;;;-5.70;99.90;;;;;;4849083;28;21004;-89
2021/03/10 00:27:08;;;;;;;39.27;21.87;;;-5.70;1.00;;;;;;4860740;28;20646;-89
2021/03/10 00:29:30;;;;;;;40.37;22.70;;;-5.70;1.00;;;;;;4863319;28;20611;-80
2021/03/10 00:31:53;;;;;;;36.93;21.77;;;-5.80;99.90;;;;;;4859505;28;20623;-90
2021/03/10 00:34:16;;;;;;;43.20;23.07;;;-5.80;1.00;;;;;;4845585;28;20682;-89
2021/03/10 00:36:38;;;;;;;43.37;22.90;;;-5.80;1.00;;;;;;4843051;28;20560;-89
2021/03/10 00:39:00;;;;;;;41.80;22.33;;;-5.80;99.90;;;;;;4842533;28;20588;-88
2021/03/10 00:41:22;;;;;;;36.03;20.27;;;-5.80;1.00;;;;;;4842398;28;20651;-89
2021/03/10 00:43:44;;;;;;;37.17;19.70;;;-5.90;1.00;;;;;;4842162;28;20604;-89
2021/03/10 00:46:06;;;;;;;35.57;19.27;;;-5.90;1.00;;;;;;4842486;28;20693;-89
2021/03/10 00:48:29;;;;;;;30.77;18.60;;;-5.90;99.90;;;;;;4855883;28;20669;-89
2021/03/10 00:50:51;;;;;;;33.27;18.87;;;-5.90;99.90;;;;;;4859868;28;20615;-88
2021/03/10 00:53:13;;;;;;;34.23;18.73;;;-5.70;99.90;;;;;;4861981;28;20607;-89
2021/03/10 00:55:36;;;;;;;33.60;18.93;;;-6.00;1.00;;;;;;4848505;28;20669;-88
2021/03/10 00:57:58;;;;;;;30.17;18.20;;;-6.00;1.00;;;;;;4861514;28;20653;-87
2021/03/10 01:00:21;;;;;;;35.73;19.90;;;-6.00;1.00;;;;;;4861276;28;20603;-79
2021/03/10 01:02:44;;;;;;;34.67;18.90;;;-6.10;1.00;;;;;;4860787;28;20599;-85
2021/03/10 01:05:08;;;;;;;34.77;18.73;;;-6.10;1.00;;;;;;4859775;28;21005;-89
2021/03/10 01:07:30;;;;;;;32.67;18.93;;;-6.10;99.90;;;;;;4842983;28;20628;-88
2021/03/10 01:09:52;;;;;;;32.63;18.70;;;-6.10;99.90;;;;;;4848703;28;20958;-89
2021/03/10 01:12:14;;;;;;;35.47;18.40;;;-6.20;99.90;;;;;;4841863;28;20643;-86
2021/03/10 01:14:36;;;;;;;30.30;17.20;;;-6.20;99.90;;;;;;4852549;28;20662;-76
2021/03/10 01:16:58;;;;;;;27.63;16.20;;;-6.20;99.90;;;;;;4860214;28;20619;-85
2021/03/10 01:19:20;;;;;;;33.37;18.57;;;-6.20;1.00;;;;;;4849751;28;21019;-86
2021/03/10 01:21:44;;;;;;;28.53;17.00;;;-6.20;1.00;;;;;;4841541;28;20678;-89
2021/03/10 01:24:08;;;;;;;30.17;18.93;;;-6.20;1.00;;;;;;4853889;28;20616;-89
2021/03/10 01:26:30;;;;;;;33.23;18.17;;;-6.30;1.00;;;;;;4856134;28;20681;-88
2021/03/10 01:28:52;;;;;;;33.43;17.97;;;-6.30;1.00;;;;;;4844109;28;21036;-88
2021/03/10 01:31:14;;;;;;;31.00;19.07;;;-6.30;1.00;;;;;;4859316;28;20627;-89
2021/03/10 01:33:36;;;;;;;34.80;19.67;;;-6.30;1.00;;;;;;4859603;28;20681;-80
2021/03/10 01:35:58;;;;;;;34.30;18.53;;;-6.30;1.00;;;;;;4861336;28;20631;-89
2021/03/10 01:38:21;;;;;;;38.93;20.77;;;-6.40;1.00;;;;;;4860083;28;20596;-89
2021/03/10 01:40:44;;;;;;;38.10;19.80;;;-6.40;1.00;;;;;;4854923;28;20663;-89
2021/03/10 01:43:07;;;;;;;41.63;21.47;;;-6.40;1.00;;;;;;4841691;28;20597;-88
2021/03/10 01:45:30;;;;;;;52.20;24.00;;;-6.40;1.00;;;;;;4852070;28;20658;-88
2021/03/10 01:47:52;;;;;;;51.40;24.80;;;-6.40;1.00;;;;;;4860258;28;21199;-89
2021/03/10 01:50:18;;;;;;;49.00;25.47;;;-6.50;1.00;;;;;;4860676;28;21195;-88
2021/03/10 01:52:40;;;;;;;53.10;26.17;;;-6.50;1.00;;;;;;4859400;28;20729;-88
2021/03/10 01:55:03;;;;;;;51.30;25.43;;;-6.50;1.00;;;;;;4845877;28;20608;-84
2021/03/10 01:57:26;;;;;;;48.03;25.20;;;-6.50;1.00;;;;;;4841326;28;20654;-87
2021/03/10 01:59:48;;;;;;;45.23;23.83;;;-6.50;1.00;;;;;;4840220;28;21146;-87
2021/03/10 02:02:10;;;;;;;48.77;23.87;;;-6.50;1.00;;;;;;4839427;28;20608;-88
2021/03/10 02:04:32;;;;;;;47.83;23.67;;;-6.50;1.00;;;;;;4841153;28;20987;-88
2021/03/10 02:07:04;;;;;;;46.60;23.50;;;-6.50;1.00;;;;;;4841104;28;20659;-88
2021/03/10 02:09:36;;;;;;;55.20;25.07;;;-6.50;1.00;;;;;;4841410;28;20576;-88
2021/03/10 02:12:06;;;;;;;53.80;25.63;;;-6.60;1.00;;;;;;4845497;28;20989;-88
2021/03/10 02:14:36;;;;;;;52.53;26.83;;;-6.70;1.00;;;;;;4859819;28;20662;-87
2021/03/10 02:17:02;;;;;;;59.87;29.10;;;-6.70;1.00;;;;;;4859364;28;20612;-86
2021/03/10 02:20:00;;;;;;;63.03;30.87;;;-6.70;1.00;;;;;;4842125;28;20617;-87
2021/03/10 02:22:42;;;;;;;63.20;30.60;;;-6.70;1.00;;;;;;4850259;28;20588;-87
2021/03/10 02:25:13;;;;;;;68.40;30.77;;;-6.70;1.00;;;;;;4840867;28;20639;-87
2021/03/10 02:27:45;;;;;;;68.43;32.97;;;-6.80;1.00;;;;;;4840989;28;20631;-85
2021/03/10 02:30:10;;;;;;;63.93;30.70;;;-6.80;1.00;;;;;;4852733;28;20607;-88
2021/03/10 02:32:36;;;;;;;65.87;30.03;;;-6.80;1.00;;;;;;4848768;28;20673;-87
2021/03/10 02:34:58;;;;;;;73.33;30.73;;;-6.80;1.00;;;;;;4840583;28;20686;-87
2021/03/10 02:37:21;;;;;;;67.10;31.63;;;-6.90;1.00;;;;;;4847478;28;20654;-87
2021/03/10 02:39:44;;;;;;;60.23;30.93;;;-6.90;1.00;;;;;;4859288;28;20645;-86
2021/03/10 02:42:06;;;;;;;71.47;31.53;;;-7.00;1.00;;;;;;4859151;28;20669;-87
2021/03/10 02:44:31;;;;;;;59.40;28.40;;;-7.00;1.00;;;;;;4859568;28;20592;-87
2021/03/10 02:46:53;;;;;;;58.67;30.23;;;-7.00;1.00;;;;;;4857588;28;20714;-85
2021/03/10 02:49:17;;;;;;;56.80;29.40;;;-7.00;1.00;;;;;;4858903;28;21015;-87
2021/03/10 02:51:42;;;;;;;65.27;30.77;;;-7.10;1.00;;;;;;4858568;28;20639;-87
2021/03/10 02:54:05;;;;;;;66.83;30.27;;;-7.10;1.00;;;;;;4851189;28;20620;-87
2021/03/10 02:56:28;;;;;;;69.63;30.10;;;-7.10;1.00;;;;;;4840979;28;20597;-86
2021/03/10 02:58:50;;;;;;;65.67;30.53;;;-7.10;1.00;;;;;;4859123;28;20588;-87
2021/03/10 03:01:14;;;;;;;64.13;29.50;;;-7.10;1.00;;;;;;4857509;28;20599;-86
2021/03/10 03:03:36;;;;;;;66.10;30.97;;;-7.20;1.00;;;;;;4858347;28;20658;-78
2021/03/10 03:05:58;;;;;;;62.93;30.07;;;-7.20;1.00;;;;;;4854940;28;20605;-87
2021/03/10 03:08:21;;;;;;;61.50;32.03;;;-7.20;1.00;;;;;;4840052;28;21259;-87
2021/03/10 03:10:43;;;;;;;68.30;31.07;;;-7.30;1.00;;;;;;4840720;28;21121;-83
2021/03/10 03:13:08;;;;;;;64.03;30.63;;;-7.30;1.00;;;;;;4859075;28;20596;-87
2021/03/10 03:15:31;;;;;;;66.50;31.83;;;-7.30;1.00;;;;;;4858882;28;20692;-87
2021/03/10 03:17:56;;;;;;;59.17;31.17;;;-7.30;1.00;;;;;;4844092;28;20685;-87
2021/03/10 03:20:20;;;;;;;58.97;31.23;;;-7.30;1.00;;;;;;4858645;28;21125;-86
2021/03/10 03:22:45;;;;;;;65.53;31.33;;;-7.40;1.00;;;;;;4851602;28;20604;-86
2021/03/10 03:25:08;;;;;;;73.10;32.93;;;-7.40;1.00;;;;;;4839385;28;20686;-87
2021/03/10 03:27:32;;;;;;;65.03;32.37;;;-7.40;1.00;;;;;;4844741;28;20651;-87
2021/03/10 03:29:56;;;;;;;70.53;31.20;;;-7.50;1.00;;;;;;4858476;28;20592;-86
2021/03/10 03:32:19;;;;;;;63.57;31.73;;;-7.50;1.00;;;;;;4845144;28;20971;-86
2021/03/10 03:34:42;;;;;;;72.50;34.07;;;-7.50;1.00;;;;;;4839249;28;20644;-87
2021/03/10 03:37:04;;;;;;;68.17;33.77;;;-7.50;1.00;;;;;;4839923;28;20569;-87
2021/03/10 03:39:26;;;;;;;69.80;34.43;;;-7.60;1.00;;;;;;4845494;28;20651;-87
2021/03/10 03:41:50;;;;;;;72.53;33.70;;;-7.60;1.00;;;;;;4844138;28;20638;-83
2021/03/10 03:44:12;;;;;;;75.00;34.50;;;-7.60;1.00;;;;;;4839650;28;20678;-86
2021/03/10 03:46:35;;;;;;;73.77;35.23;;;-7.60;1.00;;;;;;4839756;28;20597;-87
2021/03/10 03:48:58;;;;;;;76.57;35.13;;;-7.60;1.00;;;;;;4842881;28;20603;-86
2021/03/10 03:51:25;;;;;;;78.80;37.17;;;-7.60;1.00;;;;;;4857346;28;20616;-86
2021/03/10 03:53:57;;;;;;;82.97;37.20;;;-7.60;1.00;;;;;;4857885;28;20626;-85
2021/03/10 03:56:19;;;;;;;87.00;36.77;;;-7.60;1.00;;;;;;4853031;28;21014;-87
2021/03/10 03:58:41;;;;;;;72.20;33.77;;;-7.60;1.00;;;;;;4848879;28;20620;-86
2021/03/10 04:01:03;;;;;;;72.97;33.63;;;-7.60;1.00;;;;;;4839079;28;20650;-86
2021/03/10 04:03:25;;;;;;;73.97;34.97;;;-7.60;1.00;;;;;;4843033;28;20622;-87
2021/03/10 04:05:47;;;;;;;72.13;35.03;;;-7.60;1.00;;;;;;4858362;28;20607;-82
2021/03/10 04:08:10;;;;;;;73.07;34.03;;;-7.60;1.00;;;;;;4842693;28;20640;-86
2021/03/10 04:10:35;;;;;;;70.57;33.97;;;-7.50;1.00;;;;;;4843061;28;20648;-84
2021/03/10 04:12:58;;;;;;;67.67;32.27;;;-7.60;1.00;;;;;;4843054;28;20642;-86
2021/03/10 04:15:21;;;;;;;73.90;33.87;;;-7.70;1.00;;;;;;4842841;28;21057;-87
2021/03/10 04:17:43;;;;;;;72.83;33.33;;;-7.50;1.00;;;;;;4842562;28;20658;-86
2021/03/10 04:20:09;;;;;;;70.33;33.50;;;-7.70;1.00;;;;;;4857192;28;20673;-85
2021/03/10 04:22:31;;;;;;;69.53;32.30;;;-7.80;1.00;;;;;;4854245;28;20622;-87
2021/03/10 04:24:54;;;;;;;70.17;33.17;;;-7.80;1.00;;;;;;4852954;28;20608;-87
2021/03/10 04:27:16;;;;;;;70.87;32.77;;;-7.80;1.00;;;;;;4849096;28;20655;-84
2021/03/10 04:29:38;;;;;;;68.77;34.33;;;-7.90;1.00;;;;;;4844226;28;20944;-88
2021/03/10 04:32:00;;;;;;;68.67;33.50;;;-7.90;1.00;;;;;;4842736;28;20592;-87
2021/03/10 04:34:22;;;;;;;73.07;35.30;;;-7.90;1.00;;;;;;4852802;28;20638;-86
2021/03/10 04:36:44;;;;;;;68.43;34.13;;;-7.90;1.00;;;;;;4861238;28;20649;-87
2021/03/10 04:39:07;;;;;;;74.77;35.33;;;-8.00;1.00;;;;;;4861569;28;20592;-86
2021/03/10 04:41:30;;;;;;;72.37;35.40;;;-8.00;1.00;;;;;;4860388;28;20646;-87
2021/03/10 04:43:52;;;;;;;76.47;34.10;;;-8.00;1.00;;;;;;4860094;28;20611;-87
2021/03/10 04:46:14;;;;;;;64.73;32.57;;;-8.00;1.00;;;;;;4861292;28;20602;-87
2021/03/10 04:48:36;;;;;;;62.97;31.67;;;-8.00;1.00;;;;;;4860222;28;20685;-79
2021/03/10 04:50:58;;;;;;;70.33;32.53;;;-8.00;1.00;;;;;;4861197;28;20580;-87
2021/03/10 04:53:20;;;;;;;66.23;32.80;;;-8.00;1.00;;;;;;4859261;28;20580;-87
2021/03/10 04:55:42;;;;;;;71.57;32.83;;;-8.00;1.00;;;;;;4859966;28;20669;-85
2021/03/10 04:58:05;;;;;;;74.03;34.43;;;-8.00;1.50;;;;;;4860102;28;20665;-88
2021/03/10 05:00:27;;;;;;;78.17;34.17;;;-8.00;3.00;;;;;;4840719;28;20608;-81
2021/03/10 05:02:49;;;;;;;71.73;35.47;;;-8.00;4.50;;;;;;4842974;28;20643;-87
2021/03/10 05:05:13;;;;;;;77.63;36.10;;;-8.00;5.80;;;;;;4861138;28;20608;-87
2021/03/10 05:07:35;;;;;;;94.97;47.90;;;-8.10;6.90;;;;;;4861010;28;20697;-85
2021/03/10 05:09:57;;;;;;;86.77;40.67;;;-8.10;7.10;;;;;;4853421;28;20658;-86
2021/03/10 05:12:20;;;;;;;77.10;36.97;;;-8.10;7.60;;;;;;4841523;28;20608;-86
2021/03/10 05:14:42;;;;;;;87.00;40.50;;;-8.10;9.00;;;;;;4873889;28;20658;-85
2021/03/10 05:17:05;;;;;;;85.87;37.70;;;-8.00;10.20;;;;;;4854141;28;21168;-88
2021/03/10 05:19:27;;;;;;;90.77;39.17;;;-8.00;12.00;;;;;;4841771;28;20605;-87
2021/03/10 05:21:49;;;;;;;86.90;38.37;;;-8.00;13.00;;;;;;4842444;28;21016;-80
2021/03/10 05:24:11;;;;;;;80.57;38.37;;;-8.00;13.70;;;;;;4856173;28;20642;-86
2021/03/10 05:26:33;;;;;;;83.53;37.87;;;-8.00;14.80;;;;;;4858634;28;20650;-85
2021/03/10 05:28:55;;;;;;;76.20;35.60;;;-8.00;16.60;;;;;;4841599;28;21097;-77
2021/03/10 05:31:18;;;;;;;74.63;35.87;;;-7.90;18.90;;;;;;4841517;28;20997;-78
2021/03/10 05:33:41;;;;;;;88.73;39.27;;;-7.90;21.70;;;;;;4847983;28;20608;-86
2021/03/10 05:36:04;;;;;;;89.93;40.53;;;-7.90;23.00;;;;;;4859492;28;21246;-82
2021/03/10 05:38:26;;;;;;;86.67;41.80;;;-7.90;23.70;;;;;;4860328;28;21233;-86
2021/03/10 05:40:49;;;;;;;86.97;38.33;;;-7.70;24.00;;;;;;4859409;28;20657;-87
2021/03/10 05:43:11;;;;;;;74.73;34.80;;;-7.70;21.90;;;;;;4848017;28;20678;-85
2021/03/10 05:45:33;;;;;;;82.77;37.27;;;-7.70;20.70;;;;;;4841329;28;21219;-86
2021/03/10 05:47:56;;;;;;;88.73;39.63;;;-7.70;20.20;;;;;;4844697;28;21285;-88
2021/03/10 05:50:18;;;;;;;79.43;36.70;;;-7.60;20.20;;;;;;4860385;28;20650;-86
2021/03/10 05:52:43;;;;;;;74.80;36.77;;;-7.50;21.00;;;;;;4853569;28;21005;-89
2021/03/10 05:55:07;;;;;;;77.80;38.27;;;-7.40;22.60;;;;;;4859057;28;20604;-88
2021/03/10 05:57:29;;;;;;;83.50;40.23;;;-7.30;23.90;;;;;;4859872;28;20615;-84
2021/03/10 05:59:51;;;;;;;82.53;39.67;;;-7.20;24.90;;;;;;4859806;28;21153;-87
2021/03/10 06:02:13;;;;;;;84.20;40.70;;;-7.10;26.70;;;;;;4857753;28;21198;-87
2021/03/10 06:04:41;;;;;;;92.80;43.83;;;-6.90;28.00;;;;;;4840826;28;20604;-76
2021/03/10 06:07:03;;;;;;;90.23;43.63;;;-6.80;30.00;;;;;;4840888;28;20646;-83
2021/03/10 06:09:26;;;;;;;84.93;44.03;;;-6.70;32.10;;;;;;4840908;28;20652;-88
2021/03/10 06:11:54;;;;;;;102.77;47.93;;;-6.50;33.30;;;;;;4840780;28;20643;-82
2021/03/10 06:14:17;;;;;;;113.73;50.47;;;-6.40;34.20;;;;;;4840685;28;20976;-78
2021/03/10 06:16:39;;;;;;;141.30;63.13;;;-4.80;36.20;;;;;;4840350;28;20663;-88
2021/03/10 06:19:05;;;;;;;113.17;55.17;;;-6.00;35.50;;;;;;4854887;28;20612;-87
2021/03/10 06:21:28;;;;;;;139.63;65.67;;;-5.80;36.60;;;;;;4859623;28;20600;-88
2021/03/10 06:23:52;;;;;;;155.73;75.43;;;-5.60;40.30;;;;;;4857084;28;20615;-88
2021/03/10 06:26:18;;;;;;;140.43;67.70;;;-5.40;42.60;;;;;;4859657;28;20591;-86
2021/03/10 06:28:41;;;;;;;151.13;73.73;;;-4.60;43.80;;;;;;4847839;28;20644;-87
2021/03/10 06:31:03;;;;;;;152.47;72.63;;;-5.00;43.00;;;;;;4840404;28;20658;-79
2021/03/10 06:33:25;;;;;;;160.40;74.67;;;-4.80;42.00;;;;;;4843176;28;21030;-88
2021/03/10 06:35:47;;;;;;;171.33;81.57;;;-4.60;41.50;;;;;;4847374;28;20639;-78
2021/03/10 06:38:15;;;;;;;142.97;70.67;;;-3.80;39.50;;;;;;4858459;28;20623;-85
2021/03/10 06:40:51;;;;;;;135.87;65.63;;;-4.10;34.20;;;;;;4842231;28;20613;-87
2021/03/10 06:43:13;;;;;;;88.63;44.90;;;-3.80;26.80;;;;;;4840707;28;20604;-86
2021/03/10 06:45:36;;;;;;;67.93;33.60;;;-3.50;13.40;;;;;;4840302;28;20647;-75
2021/03/10 06:47:58;;;;;;;54.60;31.23;;;-3.10;1.00;;;;;;4839820;28;20707;-86
2021/03/10 06:50:20;;;;;;;51.17;29.20;;;-2.90;1.00;;;;;;4840234;28;20593;-87
2021/03/10 06:52:50;;;;;;;49.67;25.67;;;-2.70;99.90;;;;;;4847119;28;20746;-86
2021/03/10 06:55:15;;;;;;;44.67;25.33;;;-2.40;96.00;;;;;;4858836;28;20673;-86
2021/03/10 06:57:43;;;;;;;41.60;25.07;;;-2.20;1.00;;;;;;4858215;28;20616;-86
2021/03/10 07:00:07;;;;;;;44.77;26.80;;;-1.90;99.90;;;;;;4859104;28;20595;-88
2021/03/10 07:02:32;;;;;;;42.73;24.83;;;-1.70;1.00;;;;;;4852373;28;21161;-89
2021/03/10 07:04:55;;;;;;;49.27;28.97;;;-1.50;42.30;;;;;;4838748;28;20612;-86
2021/03/10 07:07:19;;;;;;;35.63;22.17;;;-1.30;1.00;;;;;;4842639;28;20631;-85
2021/03/10 07:09:42;;;;;;;32.60;19.90;;;-1.20;1.00;;;;;;4858298;28;20631;-88
2021/03/10 07:12:08;;;;;;;29.20;17.30;;;-1.00;1.00;;;;;;4858039;28;20611;-87
2021/03/10 07:14:30;;;;;;;33.17;19.37;;;-0.90;99.90;;;;;;4840608;28;20679;-86
2021/03/10 07:16:52;;;;;;;39.87;22.50;;;-0.90;97.30;;;;;;4845784;28;21170;-85
2021/03/10 07:19:14;;;;;;;33.97;20.20;;;-0.70;1.00;;;;;;4855004;28;20685;-87
2021/03/10 07:21:40;;;;;;;28.87;17.13;;;-0.60;1.00;;;;;;4850643;28;20619;-85
2021/03/10 07:24:12;;;;;;;26.40;16.07;;;-0.40;1.00;;;;;;4867029;28;20663;-88
2021/03/10 07:26:42;;;;;;;27.53;16.80;;;-0.20;1.00;;;;;;4858858;28;20592;-89
2021/03/10 07:29:06;;;;;;;31.97;19.77;;;-0.10;99.90;;;;;;4839249;28;21061;-88
2021/03/10 07:31:28;;;;;;;30.47;19.17;;;0.00;99.90;;;;;;4839633;28;20608;-88
2021/03/10 07:33:52;;;;;;;23.07;16.37;;;0.10;99.90;;;;;;4839629;28;21160;-87
2021/03/10 07:36:14;;;;;;;25.83;17.10;;;0.30;1.00;;;;;;4841088;28;20585;-89
2021/03/10 07:38:40;;;;;;;27.40;17.87;;;0.30;9.70;;;;;;4843066;28;20987;-85
2021/03/10 07:41:04;;;;;;;25.90;15.23;;;0.30;1.00;;;;;;4842249;28;20197;-87
2021/03/10 07:43:38;;;;;;;29.73;17.10;;;0.60;1.00;;;;;;4850078;28;21165;-89
2021/03/10 07:46:01;;;;;;;20.47;13.43;;;0.70;1.00;;;;;;4857819;28;20252;-89
2021/03/10 07:48:30;;;;;;;21.63;13.97;;;1.00;1.00;;;;;;4856722;28;21052;-80
2021/03/10 07:50:52;;;;;;;20.67;14.33;;;1.10;1.00;;;;;;4848988;28;20677;-86
2021/03/10 07:53:14;;;;;;;34.63;19.60;;;1.20;1.00;;;;;;4841804;28;20686;-85
2021/03/10 07:59:13;;;;;;;23.13;12.40;;;1.40;1.00;;;;;;4802457;28;20582;-77
2021/03/10 08:01:36;;;;;;;17.97;11.37;;;1.50;1.00;;;;;;4849733;28;20688;-79
2021/03/10 08:04:07;;;;;;;15.73;11.60;;;1.70;1.00;;;;;;4858250;28;20185;-81
2021/03/10 08:06:41;;;;;;;18.23;12.30;;;2.00;1.00;;;;;;4858043;28;20232;-74
2021/03/10 08:09:04;;;;;;;20.53;12.50;;;2.50;1.00;;;;;;4844816;28;20295;-74
2021/03/10 08:11:37;;;;;;;15.20;10.50;;;3.20;1.00;;;;;;4858164;28;20194;-76
2021/03/10 08:14:00;;;;;;;12.37;9.53;;;3.90;1.00;;;;;;4856603;28;20252;-78
2021/03/10 08:16:25;;;;;;;12.67;9.03;;;4.20;1.00;;;;;;4855458;28;20206;-75
2021/03/10 08:18:48;;;;;;;12.37;9.37;;;4.50;1.00;;;;;;4846699;28;20706;-74
2021/03/10 08:21:12;;;;;;;11.67;9.13;;;4.90;1.00;;;;;;4841026;28;20253;-85
2021/03/10 08:23:34;;;;;;;12.73;8.90;;;5.30;1.00;;;;;;4841425;28;20592;-81
2021/03/10 08:25:57;;;;;;;11.50;8.37;;;5.50;1.00;;;;;;4840006;28;20322;-84
2021/03/10 08:28:20;;;;;;;10.83;7.57;;;5.50;1.00;;;;;;4852306;28;20263;-83
2021/03/10 08:30:43;;;;;;;9.80;7.00;;;5.30;1.00;;;;;;4839922;28;20268;-82
2021/03/10 08:33:06;;;;;;;8.77;7.17;;;5.30;1.00;;;;;;4839367;28;20761;-81
2021/03/10 08:35:29;;;;;;;9.63;6.90;;;5.40;1.00;;;;;;4840188;28;20230;-80
2021/03/10 08:37:57;;;;;;;8.03;6.37;;;5.00;1.00;;;;;;4845789;28;20241;-82
2021/03/10 08:40:23;;;;;;;8.57;6.13;;;4.70;1.00;;;;;;4856386;28;20229;-85
2021/03/10 08:42:45;;;;;;;9.03;6.90;;;4.50;1.00;;;;;;4845497;28;20191;-82
2021/03/10 08:45:08;;;;;;;8.00;6.20;;;4.40;1.00;;;;;;4848356;28;20186;-81
2021/03/10 08:47:33;;;;;;;8.20;5.93;;;4.40;1.00;;;;;;4856857;28;20186;-85
2021/03/10 08:49:57;;;;;;;7.93;4.93;;;4.20;1.00;;;;;;4843092;28;20276;-76
2021/03/10 08:52:20;;;;;;;6.40;5.13;;;4.30;1.00;;;;;;4850273;28;20273;-83
2021/03/10 08:54:51;;;;;;;7.70;5.40;;;4.30;1.00;;;;;;4840408;28;20297;-78
2021/03/10 08:57:14;;;;;;;7.73;5.03;;;4.30;1.00;;;;;;4852335;28;20228;-84
2021/03/10 08:59:37;;;;;;;11.10;5.33;;;4.40;1.00;;;;;;4840959;28;20293;-81
2021/03/10 09:02:00;;;;;;;6.33;4.73;;;4.50;1.00;;;;;;4836631;28;20195;-80
2021/03/10 09:04:24;;;;;;;7.83;5.43;;;4.60;1.00;;;;;;4846131;28;20186;-82
2021/03/10 09:06:46;;;;;;;7.13;5.10;;;4.80;1.00;;;;;;4860367;28;20262;-84
2021/03/10 09:09:11;;;;;;;8.17;6.23;;;5.00;1.00;;;;;;4839571;28;20222;-79
2021/03/10 09:11:34;;;;;;;6.93;4.80;;;5.40;1.00;;;;;;4849368;28;20194;-83
2021/03/10 09:14:03;;;;;;;6.00;4.87;;;6.10;1.00;;;;;;4838387;28;20218;-80
2021/03/10 09:16:37;;;;;;;5.30;3.83;;;6.90;1.00;;;;;;4826739;28;20202;-81
2021/03/10 09:19:13;;;;;;;5.10;4.23;;;7.50;1.00;;;;;;4839477;28;20206;-81
2021/03/10 09:21:47;;;;;;;4.20;3.67;;;8.00;1.00;;;;;;4839913;28;20258;-81
2021/03/10 09:24:19;;;;;;;4.83;3.83;;;8.40;1.00;;;;;;4838442;28;20245;-86
2021/03/10 09:26:45;;;;;;;4.60;3.83;;;8.60;1.00;;;;;;4851533;28;20194;-83
2021/03/10 09:29:09;;;;;;;4.57;3.83;;;9.00;1.00;;;;;;4857180;28;20202;-82
2021/03/10 09:31:39;;;;;;;4.20;3.80;;;9.70;1.00;;;;;;4844126;28;20202;-83
2021/03/10 09:34:05;;;;;;;3.43;3.13;;;10.80;1.00;;;;;;4849305;28;20254;-75
2021/03/10 09:36:31;;;;;;;3.03;2.83;;;11.70;1.00;;;;;;4845785;28;20256;-76
2021/03/10 09:38:59;;;;;;;3.10;1.97;;;12.10;1.00;;;;;;4852767;28;20260;-83
2021/03/10 09:41:36;;;;;;;2.27;2.17;;;12.50;1.00;;;;;;4855957;28;20202;-85
2021/03/10 09:44:02;;;;;;;1.63;1.53;;;13.50;1.00;;;;;;4835922;28;20192;-81
2021/03/10 09:46:25;;;;;;;1.33;1.23;;;14.70;99.90;;;;;;4855540;28;20726;-80
2021/03/10 09:48:49;;;;;;;0.90;0.90;;;15.60;99.90;;;;;;4853551;28;20712;-78
2021/03/10 09:51:16;;;;;;;0.87;0.87;;;15.80;99.90;;;;;;4844941;28;20214;-81
2021/03/10 09:53:42;;;;;;;0.93;0.93;;;15.70;99.90;;;;;;4839121;28;20192;-81
2021/03/10 09:56:10;;;;;;;0.70;0.70;;;15.80;99.90;;;;;;4849888;28;20201;-82
2021/03/10 09:58:47;;;;;;;0.60;0.60;;;16.30;99.90;;;;;;4836526;28;20276;-80
2021/03/10 10:01:10;;;;;;;0.40;0.40;;;16.90;99.90;;;;;;4844418;28;20186;-85
2021/03/10 10:03:32;;;;;;;0.30;0.30;;;17.70;99.90;;;;;;4841253;28;20191;-78
2021/03/10 10:06:06;;;;;;;0.23;0.23;;;19.20;99.90;;;;;;4853408;28;20704;-80
2021/03/10 10:08:28;;;;;;;0.20;0.20;;;20.70;99.90;;;;;;4827359;28;20264;-74
2021/03/10 10:10:50;;;;;;;0.20;0.20;;;21.30;99.90;;;;;;4837472;28;20267;-79
2021/03/10 10:13:19;;;;;;;0.20;0.20;;;22.10;99.90;;;;;;4854951;28;20260;-85
2021/03/10 10:15:43;;;;;;;0.30;0.30;;;23.80;99.90;;;;;;4831817;28;20199;-85
2021/03/10 10:18:10;;;;;;;0.30;0.30;;;25.80;99.90;;;;;;4844705;28;20202;-83
2021/03/10 10:20:39;;;;;;;0.20;0.20;;;27.80;99.90;;;;;;4836918;28;20212;-80
2021/03/10 10:23:06;;;;;;;0.20;0.20;;;29.00;99.90;;;;;;4837742;28;20552;-80
2021/03/10 10:25:35;;;;;;;0.23;0.23;;;29.10;99.90;;;;;;4849343;28;20255;-80
2021/03/10 10:28:01;;;;;;;0.17;0.17;;;29.70;99.90;;;;;;4840204;28;20308;-84
2021/03/10 10:30:24;;;;;;;0.20;0.20;;;30.80;1.00;;;;;;4848479;28;20643;-73
2021/03/10 10:32:49;;;;;;;0.20;0.20;;;31.50;99.90;;;;;;4837118;28;20201;-83
2021/03/10 10:35:14;;;;;;;0.17;0.17;;;31.80;99.90;;;;;;4856466;28;20231;-81
2021/03/10 10:37:37;;;;;;;0.10;0.10;;;31.70;99.90;;;;;;4845389;28;20196;-76
2021/03/10 10:40:03;;;;;;;0.20;0.20;;;32.00;99.90;;;;;;4839803;28;20654;-80
2021/03/10 10:42:26;;;;;;;0.10;0.10;;;32.00;99.90;;;;;;4836679;28;20205;-79
2021/03/10 10:44:52;;;;;;;0.10;0.10;;;32.30;99.90;;;;;;4851257;28;20200;-81
2021/03/10 10:47:18;;;;;;;0.20;0.20;;;31.10;99.90;;;;;;4852562;28;20251;-80
2021/03/10 10:49:42;;;;;;;0.20;0.20;;;29.00;99.90;;;;;;4853751;28;20274;-79
2021/03/10 10:52:05;;;;;;;0.20;0.20;;;28.10;99.90;;;;;;4842372;28;20192;-83
2021/03/10 10:54:32;;;;;;;0.20;0.20;;;27.90;99.90;;;;;;4868820;28;20208;-75
2021/03/10 10:56:55;;;;;;;0.20;0.20;;;27.10;99.90;;;;;;4836593;28;20716;-83
2021/03/10 10:59:27;;;;;;;0.10;0.10;;;25.50;99.90;;;;;;4841099;28;20664;-81
2021/03/10 11:01:50;;;;;;;0.20;0.20;;;23.70;99.90;;;;;;4849489;28;20768;-83
2021/03/10 11:04:14;;;;;;;0.20;0.20;;;22.50;99.90;;;;;;4856031;28;20203;-77
2021/03/10 11:06:37;;;;;;;0.20;0.20;;;21.30;99.90;;;;;;4854149;28;20729;-76
2021/03/10 11:09:00;;;;;;;0.20;0.20;;;21.10;99.90;;;;;;4836874;28;20254;-86
2021/03/10 11:11:23;;;;;;;0.10;0.10;;;20.70;99.90;;;;;;4846148;28;20202;-84
2021/03/10 11:13:50;;;;;;;0.20;0.20;;;19.70;99.90;;;;;;4836982;28;20278;-78
2021/03/10 11:16:28;;;;;;;0.20;0.20;;;18.60;99.90;;;;;;4838114;28;20932;-82
2021/03/10 11:19:09;;;;;;;0.23;0.23;;;17.50;99.90;;;;;;4843445;28;20218;-78
2021/03/10 11:21:33;;;;;;;0.30;0.30;;;16.40;99.90;;;;;;4854349;28;20198;-82
2021/03/10 11:23:56;;;;;;;0.30;0.30;;;15.50;99.90;;;;;;4848864;28;20258;-82
2021/03/10 11:26:20;;;;;;;0.20;0.20;;;15.90;99.90;;;;;;4850243;28;20189;-77
2021/03/10 11:28:42;;;;;;;0.20;0.20;;;18.30;99.90;;;;;;4854613;28;20657;-82
2021/03/10 11:31:07;;;;;;;0.13;0.13;;;21.00;99.90;;;;;;4827347;28;20201;-84
2021/03/10 11:33:29;;;;;;;0.20;0.20;;;22.00;99.90;;;;;;4837791;28;20255;-82
2021/03/10 11:35:53;;;;;;;0.27;0.27;;;23.20;99.90;;;;;;4849555;28;20257;-84
2021/03/10 11:38:15;;;;;;;0.37;0.37;;;25.10;99.90;;;;;;4852876;28;20641;-84
2021/03/10 11:40:40;;;;;;;0.13;0.13;;;27.20;99.90;;;;;;4845860;28;20204;-83
2021/03/10 11:43:03;;;;;;;0.30;0.30;;;29.40;99.90;;;;;;4847377;28;20239;-80
2021/03/10 11:45:25;;;;;;;0.20;0.20;;;30.40;99.90;;;;;;4845295;28;20198;-85
2021/03/10 11:47:47;;;;;;;0.27;0.27;;;29.80;99.90;;;;;;4838642;28;20195;-76
2021/03/10 11:50:10;;;;;;;0.30;0.30;;;28.20;99.90;;;;;;4839318;28;20191;-78
2021/03/10 11:52:32;;;;;;;0.23;0.23;;;25.80;99.90;;;;;;4844378;28;20191;-80
2021/03/10 11:54:54;;;;;;;0.20;0.20;;;23.80;99.90;;;;;;4841058;28;20634;-79
2021/03/10 11:57:18;;;;;;;0.20;0.20;;;22.40;99.90;;;;;;4848417;28;20189;-81
2021/03/10 11:59:40;;;;;;;0.20;0.20;;;23.20;99.90;;;;;;4837641;28;21041;-81
2021/03/10 12:02:10;;;;;;;0.20;0.20;;;25.30;99.90;;;;;;4836475;28;20268;-78
2021/03/10 12:04:39;;;;;;;0.20;0.20;;;27.90;99.90;;;;;;4835516;28;20209;-85
2021/03/10 12:07:02;;;;;;;0.20;0.20;;;30.30;99.90;;;;;;4839725;28;20202;-80
2021/03/10 12:09:24;;;;;;;0.20;0.20;;;32.10;99.90;;;;;;4853587;28;20196;-80
2021/03/10 12:11:47;;;;;;;0.20;0.20;;;34.00;99.90;;;;;;4850246;28;20261;-75
2021/03/10 12:14:11;;;;;;;0.15;0.15;;;35.60;99.90;;;;;;4841275;28;20214;-81
2021/03/10 12:16:33;;;;;;;0.20;0.20;;;36.80;99.90;;;;;;4837019;28;20249;-82
2021/03/10 12:18:55;;;;;;;0.20;0.20;;;37.70;99.90;;;;;;4846327;28;20209;-85
2021/03/10 12:21:19;;;;;;;0.20;0.20;;;38.50;99.90;;;;;;4820163;28;20195;-85
2021/03/10 12:23:41;;;;;;;0.20;0.20;;;39.20;99.90;;;;;;4857711;28;20198;-80
2021/03/10 12:26:03;;;;;;;0.20;0.20;;;39.50;99.90;;;;;;4858538;28;20190;-79
2021/03/10 12:28:26;;;;;;;0.17;0.17;;;38.50;99.90;;;;;;4858896;28;20279;-84